首页
METAR-TAF:

METAR-TAF

机场 :

Goodland Municipal Airport (Renner Field)

Goodland, 堪薩斯州, 美国

纬度: 39-22-03N, 经度: 101-41-35W, 海拔: 1114米

当前天气观测

该预报发布于33分钟前的07:53 UTC
风速9节,风向南转西南
温度 24°C
湿度 34%
气压 1012 hPa
能見度: 16.1公里
天空无云

METAR: KGLD 130753Z AUTO 21009KT 10SM CLR 24/07 A2989 RMK AO2 SLP062 T02440067

时间: 02:26 (08:26 UTC)

预报

该预报发布于3小时和6分钟前的05:20 UTC
预报有效从13日的 06点(UTC)到 14日的 06点(UTC)
风速6节,风向多变
能見度: 10公里
天空无云
从 13日的 2000点(UTC)
风速13节,风向北转东北
能見度: 10公里
散云层高于20000英尺
从 14日的 0000点(UTC)
风速13节,风向东转东北
能見度: 10公里
多云层高于12000英尺

TAF: KGLD 130520Z 1306/1406 VRB06KT P6SM SKC FM132000 03013KT P6SM SCT200 FM140000 07013KT P6SM BKN120

超过4000个机场的气象观测和天气预报(METAR&TAF报告)。

可查询的气象台以黄色和红色小点在地图上表示。

将鼠标移到小点上方,可查看气象台名称。

然后点击查看天气观测和预报。

如需切换地图:点击带黑十字的绿色按钮放大地图;点击带横线的绿色按钮缩小地图;或者点击绿色箭头查看邻近地区的地图。


METAR-TAF: